createdAt,value
2019-04-25T00:01:44.661Z,9.23
2019-04-25T00:04:12.784Z,10.38
2019-04-25T00:06:39.598Z,9.18
2019-04-25T00:09:11.848Z,8.70
2019-04-25T00:11:39.279Z,9.03
2019-04-25T00:14:06.226Z,9.25
2019-04-25T00:16:35.106Z,9.03
2019-04-25T00:19:01.980Z,8.50
2019-04-25T00:21:33.843Z,9.30
2019-04-25T00:24:02.697Z,8.93
2019-04-25T00:26:35.136Z,9.40
2019-04-25T00:29:03.793Z,10.32
2019-04-25T00:31:31.893Z,9.18
2019-04-25T00:33:59.043Z,8.40
2019-04-25T00:36:25.695Z,10.05
2019-04-25T00:38:53.234Z,9.93
2019-04-25T00:41:21.353Z,9.93
2019-04-25T00:43:48.214Z,9.80
2019-04-25T00:46:14.838Z,9.73
2019-04-25T00:48:42.519Z,10.40
2019-04-25T00:51:09.688Z,10.85
2019-04-25T00:53:36.356Z,9.65
2019-04-25T00:56:03.053Z,9.98
2019-04-25T00:58:38.251Z,9.70
2019-04-25T01:01:06.833Z,10.15
2019-04-25T01:03:35.059Z,9.73
2019-04-25T01:06:03.465Z,8.80
2019-04-25T01:08:36.297Z,9.95
2019-04-25T01:11:06.107Z,8.48
2019-04-25T01:13:32.755Z,9.35
2019-04-25T01:16:03.686Z,8.83
2019-04-25T01:18:31.386Z,9.45
2019-04-25T01:20:58.244Z,8.28
2019-04-25T01:23:24.764Z,9.50
2019-04-25T01:25:51.665Z,8.90
2019-04-25T01:28:19.774Z,8.03
2019-04-25T01:30:46.563Z,9.23
2019-04-25T01:33:13.575Z,9.13
2019-04-25T01:35:46.233Z,8.73
2019-04-25T01:38:16.114Z,7.65
2019-04-25T01:41:01.181Z,9.55
2019-04-25T01:43:43.635Z,8.58
2019-04-25T01:46:10.992Z,7.78
2019-04-25T01:48:40.204Z,7.62
2019-04-25T01:51:06.829Z,7.70
2019-04-25T01:53:33.913Z,9.78
2019-04-25T01:56:07.106Z,8.53
2019-04-25T01:58:30.542Z,9.33
2019-04-25T02:00:58.539Z,8.83
2019-04-25T02:03:27.084Z,9.30
2019-04-25T02:05:55.208Z,8.68
2019-04-25T02:08:23.842Z,9.20
2019-04-25T02:10:58.976Z,8.53
2019-04-25T02:13:26.541Z,7.97
2019-04-25T02:15:54.760Z,6.90
2019-04-25T02:18:23.416Z,8.15
2019-04-25T02:20:54.902Z,7.90
2019-04-25T02:23:21.659Z,9.50
2019-04-25T02:25:49.301Z,9.15
2019-04-25T02:28:15.991Z,9.98
2019-04-25T02:30:45.127Z,14.63
2019-04-25T02:33:14.221Z,10.53
2019-04-25T02:35:43.183Z,11.68
2019-04-25T02:38:09.292Z,11.30
2019-04-25T02:40:35.982Z,8.90
2019-04-25T02:43:07.564Z,7.50
2019-04-25T02:45:34.387Z,8.75
2019-04-25T02:48:06.992Z,7.72
2019-04-25T02:50:41.688Z,9.08
2019-04-25T02:53:26.807Z,9.75
2019-04-25T02:55:53.871Z,8.60
2019-04-25T02:58:20.871Z,9.55
2019-04-25T03:00:57.299Z,10.30
2019-04-25T03:03:17.847Z,9.50
2019-04-25T03:05:47.379Z,8.95
2019-04-25T03:08:14.422Z,9.13
2019-04-25T03:10:44.299Z,7.87
2019-04-25T03:13:12.051Z,8.30
2019-04-25T03:15:39.967Z,9.50
2019-04-25T03:18:11.938Z,6.47
2019-04-25T03:20:38.170Z,7.65
2019-04-25T03:23:24.505Z,6.33
2019-04-25T03:25:51.257Z,8.85
2019-04-25T03:28:20.373Z,10.25
2019-04-25T03:30:47.066Z,7.00
2019-04-25T03:33:19.324Z,8.60
2019-04-25T03:35:45.295Z,10.03
2019-04-25T03:38:14.906Z,10.00
2019-04-25T03:40:41.806Z,9.93
2019-04-25T03:43:10.134Z,11.10
2019-04-25T03:45:36.848Z,9.80
2019-04-25T03:48:05.603Z,9.10
2019-04-25T03:50:34.503Z,7.83
2019-04-25T03:53:04.521Z,9.53
2019-04-25T03:55:31.464Z,7.70
2019-04-25T03:57:58.069Z,7.10
2019-04-25T04:00:24.757Z,8.15
2019-04-25T04:02:51.669Z,8.43
2019-04-25T04:05:18.734Z,7.05
2019-04-25T04:07:47.370Z,6.03
2019-04-25T04:10:17.870Z,8.43
2019-04-25T04:12:46.154Z,10.25
2019-04-25T04:15:14.854Z,9.48
2019-04-25T04:17:46.884Z,9.80
2019-04-25T04:20:16.647Z,8.80
2019-04-25T04:25:48.473Z,8.83
2019-04-25T04:28:16.026Z,6.70
2019-04-25T04:30:43.562Z,8.90
2019-04-25T04:33:23.163Z,8.73
2019-04-25T04:35:40.137Z,7.00
2019-04-25T04:38:08.146Z,10.75
2019-04-25T04:40:44.346Z,10.03
2019-04-25T04:43:16.287Z,8.05
2019-04-25T04:45:45.544Z,7.90
2019-04-25T04:48:14.230Z,8.63
2019-04-25T04:50:43.436Z,9.35
2019-04-25T04:53:11.178Z,8.48
2019-04-25T04:55:38.914Z,11.10
2019-04-25T04:58:05.582Z,11.03
2019-04-25T06:16:28.195Z,8.93
2019-04-25T06:21:57.307Z,7.90
2019-04-25T06:24:44.396Z,8.40
2019-04-25T06:27:27.074Z,8.93
2019-04-25T06:30:05.534Z,9.10
2019-04-25T06:32:36.770Z,8.03
2019-04-25T06:35:09.682Z,8.70
2019-04-25T06:37:37.816Z,8.10
2019-04-25T06:40:08.545Z,7.67
2019-04-25T06:42:39.530Z,7.78
2019-04-25T06:45:28.325Z,8.40
2019-04-25T06:48:35.269Z,7.40
2019-04-25T06:51:14.732Z,7.97
2019-04-25T06:53:48.632Z,7.75
2019-04-25T06:56:24.964Z,7.55
2019-04-25T06:58:57.350Z,6.83
2019-04-25T07:01:36.351Z,7.75
2019-04-25T07:04:10.228Z,7.37
2019-04-25T07:06:43.474Z,6.97
2019-04-25T07:09:14.978Z,6.85
2019-04-25T07:11:58.280Z,6.90
2019-04-25T07:14:28.188Z,6.67
2019-04-25T07:16:55.577Z,7.40
2019-04-25T07:19:33.938Z,6.65
2019-04-25T07:22:05.287Z,6.45
2019-04-25T07:24:39.223Z,7.15
2019-04-25T07:27:25.415Z,6.03
2019-04-25T07:29:59.090Z,6.72
2019-04-25T07:32:38.889Z,7.17
2019-04-25T07:35:21.473Z,6.40
2019-04-25T07:38:01.282Z,6.33
2019-04-25T07:40:38.067Z,6.42
2019-04-25T07:43:13.506Z,5.60
2019-04-25T07:45:44.072Z,5.50
2019-04-25T07:54:11.997Z,5.22
2019-04-25T07:56:47.851Z,5.40
2019-04-25T07:59:19.275Z,4.90
2019-04-25T08:02:00.608Z,5.55
2019-04-25T08:04:31.842Z,5.05
2019-04-25T08:07:04.809Z,4.40
2019-04-25T08:09:44.290Z,4.90
2019-04-25T08:12:22.958Z,5.13
2019-04-25T08:17:57.607Z,4.22
2019-04-25T08:20:46.539Z,4.15
2019-04-25T08:29:39.711Z,4.15
2019-04-25T08:32:37.595Z,3.83
2019-04-25T08:34:59.683Z,5.00
2019-04-25T08:46:21.322Z,4.37
2019-04-25T08:49:06.149Z,4.00
2019-04-25T08:51:55.845Z,4.22
2019-04-25T08:54:51.953Z,4.47
2019-04-25T09:00:31.676Z,4.22
2019-04-25T09:06:03.732Z,4.60
2019-04-25T09:09:07.092Z,4.37
2019-04-25T09:14:31.352Z,3.50
2019-04-25T09:23:05.793Z,4.03
2019-04-25T09:26:05.667Z,4.22
2019-04-25T09:29:25.296Z,4.58
2019-04-25T09:31:16.416Z,3.55
2019-04-25T09:36:40.514Z,4.50
2019-04-25T09:42:05.501Z,3.95
2019-04-25T09:47:33.544Z,4.20
2019-04-25T09:50:20.248Z,4.15
2019-04-25T09:53:21.043Z,4.28
2019-04-25T09:55:49.635Z,4.53
2019-04-25T09:58:33.804Z,3.60
2019-04-25T10:01:05.808Z,3.98
2019-04-25T10:03:34.359Z,3.60
2019-04-25T10:06:03.916Z,4.00
2019-04-25T10:08:45.097Z,4.30
2019-04-25T10:11:15.227Z,3.70
2019-04-25T10:13:46.537Z,3.67
2019-04-25T10:16:13.940Z,4.05
2019-04-25T10:18:43.699Z,3.77
2019-04-25T10:21:14.376Z,3.10
2019-04-25T10:23:45.386Z,2.70
2019-04-25T10:29:41.627Z,2.67
2019-04-25T10:32:07.297Z,2.80
2019-04-25T10:34:37.256Z,2.72
2019-04-25T10:37:09.356Z,2.67
2019-04-25T10:39:48.914Z,2.58
2019-04-25T10:42:21.587Z,2.42
2019-04-25T10:44:50.799Z,2.62
2019-04-25T10:47:27.546Z,2.22
2019-04-25T10:50:27.519Z,2.75
2019-04-25T10:53:00.248Z,2.27
2019-04-25T10:55:41.358Z,2.70
2019-04-25T10:58:14.645Z,2.80
2019-04-25T11:01:02.019Z,2.80
2019-04-25T11:03:36.284Z,2.30
2019-04-25T11:06:06.502Z,2.90
2019-04-25T11:08:35.186Z,3.30
2019-04-25T11:11:18.802Z,3.10
2019-04-25T11:13:46.620Z,3.00
2019-04-25T11:16:15.113Z,2.80
2019-04-25T11:18:45.449Z,2.90
2019-04-25T11:21:14.669Z,2.77
2019-04-25T11:23:41.461Z,3.02
2019-04-25T11:26:10.632Z,3.30
2019-04-25T11:28:38.778Z,2.50
2019-04-25T11:31:14.001Z,3.30
2019-04-25T11:36:36.983Z,2.62
2019-04-25T11:39:24.723Z,3.05
2019-04-25T11:41:51.511Z,2.83
2019-04-25T11:44:18.232Z,3.25
2019-04-25T11:46:45.795Z,3.10
2019-04-25T11:49:15.816Z,3.47
2019-04-25T11:51:43.270Z,3.45
2019-04-25T11:54:22.016Z,3.60
2019-04-25T11:56:51.498Z,3.05
2019-04-25T11:59:18.169Z,3.22
2019-04-25T12:01:49.891Z,3.42
2019-04-25T12:04:16.677Z,3.77
2019-04-25T12:06:47.033Z,3.67
2019-04-25T12:09:13.719Z,3.30
2019-04-25T12:11:40.783Z,3.50
2019-04-25T12:14:07.794Z,3.47
2019-04-25T12:16:35.945Z,3.20
2019-04-25T12:19:04.800Z,4.05
2019-04-25T12:21:31.691Z,3.35
2019-04-25T12:23:58.719Z,3.65
2019-04-25T12:26:26.319Z,2.98
2019-04-25T12:28:56.437Z,3.47
2019-04-25T12:31:23.772Z,2.90
2019-04-25T12:33:55.241Z,3.20
2019-04-25T12:36:23.920Z,3.40
2019-04-25T12:38:57.528Z,3.45
2019-04-25T12:41:25.391Z,2.95
2019-04-25T12:43:54.554Z,3.33
2019-04-25T12:49:15.256Z,3.92
2019-04-25T12:51:43.311Z,3.58
2019-04-25T12:57:06.798Z,3.55
2019-04-25T13:02:36.593Z,3.85
2019-04-25T13:07:58.659Z,3.92
2019-04-25T13:13:40.940Z,3.58
2019-04-25T13:16:07.682Z,3.35
2019-04-25T13:18:36.211Z,3.80
2019-04-25T13:21:03.517Z,3.40
2019-04-25T13:23:32.238Z,3.87
2019-04-25T13:26:00.467Z,3.60
2019-04-25T13:29:03.705Z,4.15
2019-04-25T13:31:41.559Z,3.40
2019-04-25T13:34:14.152Z,3.85
2019-04-25T13:36:41.821Z,4.00
2019-04-25T13:39:12.686Z,3.60
2019-04-25T13:41:40.454Z,4.40
2019-04-25T13:44:07.314Z,3.35
2019-04-25T13:46:34.321Z,4.72
2019-04-25T13:49:04.151Z,3.50
2019-04-25T13:51:33.040Z,3.87
2019-04-25T13:54:01.489Z,3.62
2019-04-25T13:56:31.469Z,4.12
2019-04-25T13:59:01.687Z,3.60
2019-04-25T14:01:29.632Z,4.30
2019-04-25T14:04:00.859Z,4.53
2019-04-25T14:06:28.379Z,4.10
2019-04-25T14:08:55.834Z,4.03
2019-04-25T14:11:24.089Z,4.50
2019-04-25T14:13:53.074Z,4.65
2019-04-25T14:16:38.284Z,4.72
2019-04-25T14:19:06.750Z,4.20
2019-04-25T14:21:33.948Z,4.03
2019-04-25T14:24:02.228Z,4.33
2019-04-25T14:26:30.111Z,4.78
2019-04-25T14:28:56.650Z,4.72
2019-04-25T14:31:39.341Z,4.70
2019-04-25T14:34:03.267Z,4.95
2019-04-25T14:36:32.857Z,4.60
2019-04-25T14:38:59.896Z,4.03
2019-04-25T14:41:26.921Z,4.37
2019-04-25T14:43:54.743Z,4.33
2019-04-25T14:46:26.328Z,4.58
2019-04-25T14:48:53.356Z,4.95
2019-04-25T14:51:19.936Z,4.62
2019-04-25T14:53:46.401Z,4.90
2019-04-25T14:56:17.902Z,5.08
2019-04-25T14:58:46.074Z,5.30
2019-04-25T15:01:14.423Z,4.37
2019-04-25T15:03:40.899Z,5.05
2019-04-25T15:06:07.464Z,5.25
2019-04-25T15:08:34.405Z,4.83
2019-04-25T15:11:03.504Z,4.78
2019-04-25T15:13:30.360Z,5.05
2019-04-25T15:15:56.782Z,4.62
2019-04-25T15:18:23.511Z,5.10
2019-04-25T15:20:50.528Z,4.92
2019-04-25T15:23:17.416Z,5.35
2019-04-25T15:25:43.893Z,4.92
2019-04-25T15:28:10.380Z,5.00
2019-04-25T15:30:38.295Z,4.60
2019-04-25T15:33:05.738Z,5.33
2019-04-25T15:35:34.562Z,4.85
2019-04-25T15:38:05.606Z,5.47
2019-04-25T15:40:37.064Z,5.17
2019-04-25T15:43:11.735Z,5.47
2019-04-25T15:45:40.612Z,5.60
2019-04-25T15:48:07.604Z,4.97
2019-04-25T15:50:34.172Z,5.42
2019-04-25T15:53:02.292Z,5.40
2019-04-25T15:55:31.531Z,5.42
2019-04-25T15:57:59.536Z,5.30
2019-04-25T16:00:29.353Z,4.72
2019-04-25T16:02:55.800Z,5.22
2019-04-25T16:05:22.577Z,4.72
2019-04-25T16:07:49.165Z,4.60
2019-04-25T16:10:15.970Z,5.30
2019-04-25T16:12:42.551Z,4.72
2019-04-25T16:15:13.166Z,5.33
2019-04-25T16:17:39.877Z,5.05
2019-04-25T16:20:06.547Z,5.30
2019-04-25T16:22:34.365Z,4.95
2019-04-25T16:25:01.331Z,5.33
2019-04-25T16:27:33.271Z,6.75
2019-04-25T16:30:05.213Z,5.70
2019-04-25T16:32:33.229Z,6.05
2019-04-25T16:35:04.202Z,6.15
2019-04-25T16:37:32.436Z,6.08
2019-04-25T16:40:03.935Z,5.50
2019-04-25T16:42:39.779Z,5.62
2019-04-25T16:45:09.317Z,5.58
2019-04-25T16:47:37.323Z,9.28
2019-04-25T16:50:16.004Z,6.12
2019-04-25T16:52:44.989Z,5.55
2019-04-25T16:55:13.709Z,5.40
2019-04-25T17:03:30.105Z,5.70
2019-04-25T17:09:03.920Z,6.00
2019-04-25T17:11:35.898Z,5.90
2019-04-25T17:14:10.534Z,6.42
2019-04-25T17:16:45.017Z,5.55
2019-04-25T17:22:07.261Z,6.05
2019-04-25T17:24:34.631Z,6.90
2019-04-25T17:27:01.385Z,6.62
2019-04-25T17:29:28.004Z,6.33
2019-04-25T17:31:56.631Z,6.90
2019-04-25T17:34:28.055Z,6.28
2019-04-25T17:36:56.615Z,6.85
2019-04-25T17:39:40.074Z,6.08
2019-04-25T17:42:06.738Z,6.37
2019-04-25T17:44:34.193Z,6.25
2019-04-25T17:47:06.386Z,6.67
2019-04-25T17:49:29.143Z,6.12
2019-04-25T17:51:55.586Z,6.62
2019-04-25T17:54:22.300Z,7.15
2019-04-25T17:56:48.867Z,5.90
2019-04-25T17:59:15.405Z,6.25
2019-04-25T18:01:42.196Z,6.33
2019-04-25T18:04:09.155Z,6.70
2019-04-25T18:06:35.711Z,7.12
2019-04-25T18:09:04.908Z,6.53
2019-04-25T18:11:33.723Z,6.70
2019-04-25T18:14:01.426Z,7.10
2019-04-25T18:16:31.103Z,6.50
2019-04-25T18:19:08.488Z,7.37
2019-04-25T18:21:35.871Z,8.05
2019-04-25T18:24:13.976Z,7.50
2019-04-25T18:26:43.425Z,7.72
2019-04-25T18:29:21.105Z,8.55
2019-04-25T18:31:48.438Z,8.00
2019-04-25T18:34:25.866Z,7.65
2019-04-25T18:36:54.306Z,6.97
2019-04-25T18:39:22.804Z,9.38
2019-04-25T18:41:53.931Z,8.90
2019-04-25T18:44:20.373Z,8.28
2019-04-25T18:46:47.541Z,8.35
2019-04-25T18:49:14.036Z,8.23
2019-04-25T18:51:40.663Z,9.20
2019-04-25T18:54:10.273Z,9.18
2019-04-25T18:56:38.960Z,10.13
2019-04-25T18:59:08.638Z,9.88
2019-04-25T19:01:52.027Z,9.23
2019-04-25T19:04:20.533Z,13.28
2019-04-25T19:06:55.225Z,10.05
2019-04-25T19:09:15.520Z,8.80
2019-04-25T19:11:42.901Z,9.90
2019-04-25T19:14:29.340Z,10.15
2019-04-25T19:16:56.940Z,9.43
2019-04-25T19:19:23.558Z,11.75
2019-04-25T19:21:50.015Z,11.35
2019-04-25T19:24:16.489Z,12.15
2019-04-25T19:26:43.590Z,26.52
2019-04-25T19:29:11.172Z,12.65
2019-04-25T19:31:37.730Z,14.55
2019-04-25T19:34:04.361Z,15.68
2019-04-25T19:36:30.980Z,13.18
2019-04-25T19:38:57.535Z,12.55
2019-04-25T19:41:37.958Z,12.43
2019-04-25T19:44:09.400Z,14.40
2019-04-25T19:46:39.046Z,11.38
2019-04-25T19:49:05.990Z,12.23
2019-04-25T19:51:32.715Z,10.82
2019-04-25T19:53:59.166Z,11.30
2019-04-25T19:56:26.876Z,10.75
2019-04-25T19:58:53.459Z,10.85
2019-04-25T20:01:20.107Z,10.38
2019-04-25T20:03:58.335Z,11.08
2019-04-25T20:06:27.569Z,10.25
2019-04-25T20:08:56.025Z,9.00
2019-04-25T20:11:27.346Z,10.15
2019-04-25T20:13:53.815Z,10.05
2019-04-25T20:16:20.303Z,11.15
2019-04-25T20:18:47.693Z,12.05
2019-04-25T20:21:14.447Z,9.43
2019-04-25T20:23:40.898Z,11.28
2019-04-25T20:26:07.468Z,12.88
2019-04-25T20:28:34.161Z,12.05
2019-04-25T20:31:00.616Z,13.58
2019-04-25T20:33:27.216Z,14.83
2019-04-25T20:35:53.794Z,12.43
2019-04-25T20:38:20.309Z,12.60
2019-04-25T20:40:47.667Z,11.57
2019-04-25T20:43:14.379Z,11.40
2019-04-25T20:45:40.914Z,11.28
2019-04-25T20:48:07.392Z,14.78
2019-04-25T20:50:33.857Z,12.00
2019-04-25T20:53:00.366Z,12.60
2019-04-25T20:55:26.835Z,11.68
2019-04-25T20:57:53.342Z,11.48
2019-04-25T21:00:40.124Z,12.40
2019-04-25T21:03:07.015Z,12.15
2019-04-25T21:05:33.506Z,10.65
2019-04-25T21:07:59.937Z,12.03
2019-04-25T21:10:26.407Z,11.68
2019-04-25T21:12:53.699Z,12.05
2019-04-25T21:15:22.206Z,12.80
2019-04-25T21:17:54.249Z,12.60
2019-04-25T21:20:21.021Z,12.53
2019-04-25T21:22:47.469Z,12.03
2019-04-25T21:25:13.929Z,12.90
2019-04-25T21:27:40.405Z,12.73
2019-04-25T21:30:09.090Z,12.45
2019-04-25T21:32:49.353Z,10.60
2019-04-25T21:35:17.818Z,12.18
2019-04-25T21:37:44.327Z,12.43
2019-04-25T21:40:13.219Z,11.90
2019-04-25T21:42:42.110Z,12.50
2019-04-25T21:45:09.206Z,12.68
2019-04-25T21:47:35.662Z,14.68
2019-04-25T21:50:05.207Z,13.45
2019-04-25T21:52:31.960Z,13.78
2019-04-25T21:54:59.531Z,14.65
2019-04-25T21:57:26.276Z,15.15
2019-04-25T22:00:00.263Z,14.85
2019-04-25T22:02:21.753Z,14.85
2019-04-25T22:04:48.627Z,13.75
2019-04-25T22:07:15.771Z,13.93
2019-04-25T22:09:42.671Z,14.28
2019-04-25T22:12:10.327Z,14.00
2019-04-25T22:14:36.868Z,13.58
2019-04-25T22:17:04.440Z,13.98
2019-04-25T22:19:31.460Z,13.30
2019-04-25T22:21:58.763Z,13.93
2019-04-25T22:24:25.592Z,13.08
2019-04-25T22:26:53.947Z,13.53
2019-04-25T22:29:20.446Z,13.68
2019-04-25T22:32:05.621Z,13.88
2019-04-25T22:34:37.256Z,12.93
2019-04-25T22:37:04.184Z,12.73
2019-04-25T22:39:30.897Z,13.70
2019-04-25T22:41:57.776Z,14.18
2019-04-25T22:44:25.616Z,14.45
2019-04-25T22:46:52.384Z,13.35
2019-04-25T22:49:18.803Z,13.83
2019-04-25T22:51:45.366Z,13.55
2019-04-25T22:54:12.104Z,13.58
2019-04-25T22:56:38.541Z,14.13
2019-04-25T22:59:05.475Z,12.70
2019-04-25T23:01:40.047Z,13.20
2019-04-25T23:04:23.613Z,13.65
2019-04-25T23:06:50.169Z,11.60
2019-04-25T23:09:16.703Z,13.15
2019-04-25T23:11:43.531Z,13.83
2019-04-25T23:14:10.932Z,12.30
2019-04-25T23:16:38.408Z,14.03
2019-04-25T23:19:05.114Z,13.85
2019-04-25T23:21:31.946Z,13.60
2019-04-25T23:23:58.386Z,14.60
2019-04-25T23:26:26.746Z,13.62
2019-04-25T23:28:55.389Z,13.25
2019-04-25T23:31:23.749Z,13.10
2019-04-25T23:33:50.516Z,14.00
2019-04-25T23:36:17.290Z,13.62
2019-04-25T23:38:43.926Z,14.47
2019-04-25T23:41:11.468Z,12.90
2019-04-25T23:43:38.247Z,13.35
2019-04-25T23:46:05.701Z,12.18
2019-04-25T23:48:32.594Z,12.55
2019-04-25T23:50:59.284Z,11.78
2019-04-25T23:53:25.706Z,13.70
2019-04-25T23:55:52.257Z,11.78
2019-04-25T23:58:18.709Z,13.55
